Terminal Aerodrome Forecast
Issued by NWS

Home | Current Version | Previous Version | Text Only | Print | Product List | Glossary On
Versions: 1 2 3 4 5 6 7 8 9 10 11 12 13 14 15 16 17 18 19 20
000
FTUS46 KLOX 102329
TAFBUR
TAF
KBUR 102329Z 1100/1124 18008KT 5SM HZ SCT015 BKN025
     FM110300 15004KT 4SM BR SCT006 OVC012
     FM110500 VRB03KT 2SM -DZ BR VCSH BKN006 OVC012
     FM111500 16005KT 4SM BR SCT006 OVC012
     FM112000 17008KT 5SM HZ SCT012 OVC025=

USA.gov is the U.S. government's official web portal to all federal, state and local government web resources and services.